createdAt,value
2023-03-20T00:00:08.014Z,0
2023-03-20T00:05:12.147Z,0
2023-03-20T00:10:16.306Z,0
2023-03-20T00:15:20.481Z,0
2023-03-20T00:20:24.625Z,0
2023-03-20T00:25:28.786Z,0
2023-03-20T00:30:32.961Z,0
2023-03-20T00:35:37.469Z,0
2023-03-20T00:40:41.302Z,0
2023-03-20T00:45:45.420Z,0
2023-03-20T00:50:49.637Z,0
2023-03-20T00:55:53.782Z,0
2023-03-20T01:00:57.970Z,0
2023-03-20T01:06:02.098Z,0
2023-03-20T01:11:06.233Z,0
2023-03-20T01:16:10.437Z,0
2023-03-20T01:21:12.677Z,0
2023-03-20T01:26:16.845Z,0
2023-03-20T01:31:19.155Z,0
2023-03-20T01:36:23.333Z,0
2023-03-20T01:41:27.440Z,0
2023-03-20T01:46:31.746Z,0
2023-03-20T01:51:35.774Z,0
2023-03-20T01:56:39.893Z,0
2023-03-20T02:01:44.087Z,0
2023-03-20T02:06:48.246Z,0
2023-03-20T02:11:52.431Z,0
2023-03-20T02:16:56.647Z,0
2023-03-20T02:22:00.766Z,0
2023-03-20T02:27:04.900Z,0
2023-03-20T02:32:09.091Z,0
2023-03-20T02:37:13.207Z,0
2023-03-20T02:42:17.376Z,0
2023-03-20T02:47:21.562Z,0
2023-03-20T02:52:25.708Z,0
2023-03-20T02:57:29.874Z,0
2023-03-20T03:02:34.040Z,0
2023-03-20T03:07:38.184Z,0
2023-03-20T03:12:42.346Z,0
2023-03-20T03:17:44.628Z,0
2023-03-20T03:22:46.897Z,0
2023-03-20T03:27:49.149Z,0
2023-03-20T03:32:53.347Z,0
2023-03-20T03:37:57.478Z,0
2023-03-20T03:43:01.723Z,0
2023-03-20T03:48:05.842Z,0
2023-03-20T03:53:09.970Z,0
2023-03-20T03:58:14.162Z,0
2023-03-20T04:03:18.305Z,0
2023-03-20T04:08:22.475Z,0
2023-03-20T04:13:26.645Z,0
2023-03-20T04:18:30.816Z,0
2023-03-20T04:23:34.932Z,0
2023-03-20T04:33:43.298Z,0
2023-03-20T04:38:47.434Z,0
2023-03-20T04:43:51.596Z,0
2023-03-20T04:48:55.788Z,0
2023-03-20T04:53:59.956Z,0
2023-03-20T04:59:04.086Z,0
2023-03-20T05:04:08.314Z,0
2023-03-20T05:09:12.408Z,0
2023-03-20T05:14:16.606Z,1
2023-03-20T05:19:18.854Z,5
2023-03-20T05:24:22.988Z,11
2023-03-20T05:29:25.332Z,25
2023-03-20T05:34:29.477Z,54
2023-03-20T05:39:33.628Z,90
2023-03-20T05:44:37.772Z,144
2023-03-20T05:49:41.940Z,208
2023-03-20T05:54:46.143Z,296
2023-03-20T05:59:50.264Z,385
2023-03-20T06:04:54.403Z,516
2023-03-20T06:09:58.585Z,713
2023-03-20T06:15:02.752Z,780
2023-03-20T06:20:06.927Z,883
2023-03-20T06:25:11.050Z,1146
2023-03-20T06:30:15.241Z,1372
2023-03-20T06:35:19.429Z,1612
2023-03-20T06:40:23.553Z,1409
2023-03-20T06:45:27.719Z,1408
2023-03-20T06:50:31.904Z,1467
2023-03-20T06:55:36.366Z,1794
2023-03-20T07:00:40.194Z,2163
2023-03-20T07:05:44.363Z,2535
2023-03-20T07:10:48.542Z,2557
2023-03-20T07:16:03.728Z,2965
2023-03-20T07:20:55.022Z,3420
2023-03-20T07:25:57.243Z,4003
2023-03-20T07:31:01.430Z,3862
2023-03-20T07:36:05.614Z,3904
2023-03-20T07:41:09.717Z,4024
2023-03-20T07:46:14.015Z,4705
2023-03-20T07:51:18.052Z,4794
2023-03-20T07:56:22.205Z,5843
2023-03-20T08:01:26.354Z,5867
2023-03-20T08:06:30.549Z,7029
2023-03-20T08:11:34.986Z,6224
2023-03-20T08:16:38.887Z,6351
2023-03-20T08:21:43.068Z,6075
2023-03-20T08:26:47.178Z,6201
2023-03-20T08:31:51.355Z,6792
2023-03-20T08:36:55.528Z,7840
2023-03-20T08:42:00.995Z,7962
2023-03-20T08:47:03.808Z,8807
2023-03-20T08:52:07.972Z,9430
2023-03-20T08:57:12.155Z,8612
2023-03-20T09:02:16.464Z,8472
2023-03-20T09:07:20.471Z,7555
2023-03-20T09:12:22.746Z,8221
2023-03-20T09:17:26.892Z,6976
2023-03-20T09:22:31.100Z,8322
2023-03-20T09:27:35.460Z,5467
2023-03-20T09:32:37.519Z,7645
2023-03-20T09:37:41.653Z,8841
2023-03-20T09:42:45.807Z,8624
2023-03-20T09:47:49.964Z,7797
2023-03-20T09:52:54.176Z,6373
2023-03-20T09:57:58.330Z,7274
2023-03-20T10:03:02.482Z,7279
2023-03-20T10:08:06.847Z,8605
2023-03-20T10:13:10.821Z,7870
2023-03-20T10:18:14.982Z,5878
2023-03-20T10:23:19.122Z,6477
2023-03-20T10:28:23.284Z,7861
2023-03-20T10:33:27.432Z,7298
2023-03-20T10:38:31.569Z,7780
2023-03-20T10:43:38.827Z,8848
2023-03-20T10:48:39.938Z,9840
2023-03-20T10:53:44.093Z,9808
2023-03-20T10:58:48.258Z,7303
2023-03-20T11:03:52.396Z,6589
2023-03-20T11:08:58.566Z,9774
2023-03-20T11:14:00.729Z,9175
2023-03-20T11:19:05.519Z,10637
2023-03-20T11:24:07.144Z,10624
2023-03-20T11:29:11.317Z,10096
2023-03-20T11:34:15.579Z,10340
2023-03-20T11:39:19.661Z,10565
2023-03-20T11:44:23.788Z,11186
2023-03-20T11:49:28.015Z,10841
2023-03-20T11:54:32.136Z,10572
2023-03-20T11:59:36.304Z,10705
2023-03-20T12:09:44.619Z,10952
2023-03-20T12:14:48.772Z,10639
2023-03-20T12:19:52.938Z,10660
2023-03-20T12:24:57.099Z,11211
2023-03-20T12:30:01.236Z,10936
2023-03-20T12:35:05.421Z,11155
2023-03-20T12:40:09.724Z,11537
2023-03-20T12:45:13.777Z,11365
2023-03-20T12:50:19.927Z,10813
2023-03-20T12:55:22.053Z,11143
2023-03-20T13:00:26.208Z,8690
2023-03-20T13:05:30.383Z,7226
2023-03-20T13:10:32.665Z,6614
2023-03-20T13:15:36.822Z,10320
2023-03-20T13:20:39.112Z,10213
2023-03-20T13:25:43.260Z,9466
2023-03-20T13:30:47.396Z,7340
2023-03-20T13:35:51.616Z,7356
2023-03-20T13:40:53.864Z,8544
2023-03-20T13:45:57.989Z,7680
2023-03-20T13:51:02.342Z,8049
2023-03-20T13:56:06.321Z,8284
2023-03-20T14:01:10.524Z,8187
2023-03-20T14:06:14.710Z,6400
2023-03-20T14:11:18.808Z,6045
2023-03-20T14:16:22.992Z,6329
2023-03-20T14:21:27.136Z,6108
2023-03-20T14:26:31.303Z,5978
2023-03-20T14:31:35.468Z,6805
2023-03-20T14:36:39.601Z,6953
2023-03-20T14:41:43.809Z,5255
2023-03-20T14:46:47.947Z,5796
2023-03-20T14:51:52.127Z,7594
2023-03-20T14:56:56.267Z,7688
2023-03-20T15:02:00.472Z,8689
2023-03-20T15:07:04.573Z,7913
2023-03-20T15:12:08.798Z,7652
2023-03-20T15:17:12.919Z,5955
2023-03-20T15:22:17.124Z,5635
2023-03-20T15:27:19.334Z,5048
2023-03-20T15:32:23.501Z,4112
2023-03-20T15:37:27.670Z,4115
2023-03-20T15:42:29.933Z,2809
2023-03-20T15:47:36.111Z,2988
2023-03-20T15:52:38.261Z,3905
2023-03-20T15:57:42.403Z,3760
2023-03-20T16:02:48.359Z,4336
2023-03-20T16:07:50.752Z,3329
2023-03-20T16:12:54.892Z,2918
2023-03-20T16:18:00.700Z,2740
2023-03-20T16:23:03.263Z,2387
2023-03-20T16:28:07.476Z,2696
2023-03-20T16:33:11.582Z,1596
2023-03-20T16:38:15.722Z,1653
2023-03-20T16:43:19.867Z,1590
2023-03-20T16:48:24.047Z,1353
2023-03-20T16:53:28.174Z,1268
2023-03-20T16:58:32.364Z,1092
2023-03-20T17:03:36.535Z,739
2023-03-20T17:08:40.733Z,644
2023-03-20T17:13:44.872Z,543
2023-03-20T17:18:49.006Z,408
2023-03-20T17:23:53.183Z,336
2023-03-20T17:28:55.452Z,240
2023-03-20T17:33:59.619Z,150
2023-03-20T17:39:03.776Z,104
2023-03-20T17:44:08.024Z,63
2023-03-20T17:49:12.067Z,37
2023-03-20T17:54:16.254Z,23
2023-03-20T17:59:20.429Z,13
2023-03-20T18:04:24.584Z,5
2023-03-20T18:09:28.720Z,1
2023-03-20T18:14:32.882Z,0
2023-03-20T18:19:37.047Z,0
2023-03-20T18:24:44.118Z,0
2023-03-20T18:29:45.384Z,0
2023-03-20T18:34:49.548Z,0
2023-03-20T18:39:53.727Z,0
2023-03-20T18:44:57.861Z,0
2023-03-20T18:50:02.060Z,0
2023-03-20T18:55:06.215Z,0
2023-03-20T19:00:10.354Z,0
2023-03-20T19:05:14.547Z,0
2023-03-20T19:10:18.728Z,0
2023-03-20T19:15:20.969Z,0
2023-03-20T19:20:25.141Z,0
2023-03-20T19:25:27.376Z,0
2023-03-20T19:30:31.561Z,0
2023-03-20T19:36:01.359Z,0
2023-03-20T19:40:42.859Z,0
2023-03-20T19:45:44.059Z,0
2023-03-20T19:50:48.221Z,0
2023-03-20T19:55:52.552Z,0
2023-03-20T20:01:11.115Z,0
2023-03-20T20:06:00.668Z,0
2023-03-20T20:11:04.868Z,0
2023-03-20T20:16:09.048Z,0
2023-03-20T20:22:06.339Z,0
2023-03-20T20:26:15.839Z,0
2023-03-20T20:31:19.636Z,0
2023-03-20T20:37:32.268Z,0
2023-03-20T20:41:27.912Z,0
2023-03-20T20:46:32.206Z,0
2023-03-20T20:51:36.216Z,0
2023-03-20T20:56:40.394Z,0
2023-03-20T21:01:44.664Z,0
2023-03-20T21:07:08.716Z,0
2023-03-20T21:11:51.004Z,0
2023-03-20T21:16:55.192Z,0
2023-03-20T21:21:57.450Z,0
2023-03-20T21:27:01.602Z,0
2023-03-20T21:32:05.848Z,0
2023-03-20T21:42:14.059Z,0
2023-03-20T21:48:04.278Z,0
2023-03-20T21:53:05.944Z,0
2023-03-20T21:58:10.504Z,0
2023-03-20T22:02:32.639Z,0
2023-03-20T22:08:27.897Z,0
2023-03-20T22:13:44.549Z,0
2023-03-20T22:18:38.385Z,0
2023-03-20T22:23:50.766Z,0
2023-03-20T22:28:33.264Z,0
2023-03-20T22:34:09.677Z,0
2023-03-20T22:38:55.011Z,0
2023-03-20T22:43:59.892Z,0
2023-03-20T22:48:08.189Z,0
2023-03-20T22:53:12.360Z,0
2023-03-20T22:58:16.489Z,0
2023-03-20T23:03:33.752Z,0
2023-03-20T23:08:23.076Z,0
2023-03-20T23:13:27.102Z,0
2023-03-20T23:18:29.397Z,0
2023-03-20T23:23:33.523Z,0
2023-03-20T23:28:37.667Z,0
2023-03-20T23:33:41.821Z,0
2023-03-20T23:38:45.989Z,0
2023-03-20T23:43:52.528Z,0
2023-03-20T23:48:54.314Z,0
2023-03-20T23:53:58.494Z,0
2023-03-20T23:59:11.418Z,0
